Time;durP1;ratioP1;P1;durP2;ratioP2;P2;SDS_P1;SDS_P2;PMS_P1;PMS_P2;Temp;Humidity;BMP_temperature;BMP_pressure;BME280_temperature;BME280_humidity;BME280_pressure;Samples;Min_cycle;Max_cycle;Signal;HPM_P1;HPM_P2
2022/09/03 00:02:09;;;;;;;4.78;1.30;;;17.20;96.80;;;;;;5074470;28;20211;-57
2022/09/03 00:04:43;;;;;;;2.83;1.02;;;17.30;96.80;;;;;;5074531;28;20208;-58
2022/09/03 00:07:30;;;;;;;2.70;1.02;;;17.30;96.70;;;;;;5074026;28;20312;-58
2022/09/03 00:10:02;;;;;;;1.45;1.00;;;17.30;96.70;;;;;;5073626;28;20327;-58
2022/09/03 00:12:33;;;;;;;0.98;0.88;;;17.30;96.80;;;;;;5073479;28;20223;-58
2022/09/03 00:15:05;;;;;;;1.90;1.08;;;17.30;96.80;;;;;;5073796;28;20212;-59
2022/09/03 00:17:37;;;;;;;2.97;1.00;;;17.20;96.90;;;;;;5073592;28;20229;-59
2022/09/03 00:20:08;;;;;;;0.98;0.77;;;17.20;97.10;;;;;;5073423;28;20201;-58
2022/09/03 00:22:40;;;;;;;1.45;1.00;;;17.20;97.20;;;;;;5073635;28;20205;-58
2022/09/03 00:25:13;;;;;;;1.60;1.02;;;17.20;97.30;;;;;;5073462;28;20291;-58
2022/09/03 00:27:41;;;;;;;1.15;0.82;;;17.20;97.30;;;;;;5073463;28;20256;-58
2022/09/03 00:30:11;;;;;;;2.25;1.10;;;17.30;97.10;;;;;;5073158;28;20607;-58
2022/09/03 00:32:45;;;;;;;1.88;0.80;;;17.40;96.90;;;;;;5073480;28;20208;-58
2022/09/03 00:35:17;;;;;;;1.95;1.10;;;17.50;96.90;;;;;;5073594;28;20290;-59
2022/09/03 00:37:45;;;;;;;1.48;1.00;;;17.60;96.60;;;;;;5073531;28;20239;-58
2022/09/03 00:40:31;;;;;;;3.55;1.02;;;17.70;96.60;;;;;;5073442;28;20501;-58
2022/09/03 00:43:04;;;;;;;1.08;0.80;;;17.70;96.60;;;;;;5073363;28;20209;-58
2022/09/03 00:45:39;;;;;;;0.80;0.80;;;17.70;96.60;;;;;;5073065;28;20200;-58
2022/09/03 00:48:15;;;;;;;1.55;1.23;;;17.70;96.40;;;;;;5073322;28;20209;-58
2022/09/03 00:50:52;;;;;;;2.00;1.10;;;17.70;96.40;;;;;;5073425;28;20204;-58
2022/09/03 00:53:28;;;;;;;1.67;0.90;;;17.80;96.40;;;;;;5072907;28;20592;-58
2022/09/03 00:56:03;;;;;;;2.83;0.90;;;17.80;96.30;;;;;;5074598;28;20224;-58
2022/09/03 00:58:44;;;;;;;3.40;1.10;;;17.80;96.30;;;;;;5077588;28;20226;-58
2022/09/03 01:01:16;;;;;;;1.58;1.00;;;17.80;96.30;;;;;;5077353;28;20583;-58
2022/09/03 01:03:53;;;;;;;4.03;1.17;;;17.90;96.20;;;;;;5076972;28;20208;-57
2022/09/03 01:06:28;;;;;;;1.13;1.00;;;18.00;95.90;;;;;;5077050;28;20231;-58
2022/09/03 01:09:10;;;;;;;2.25;1.20;;;18.10;95.90;;;;;;5076930;28;20255;-58
2022/09/03 01:11:48;;;;;;;1.40;0.90;;;18.10;95.80;;;;;;5076981;28;20634;-58
2022/09/03 01:14:29;;;;;;;1.17;0.85;;;18.10;95.70;;;;;;5077114;28;20212;-58
2022/09/03 01:17:05;;;;;;;2.05;1.13;;;18.20;95.70;;;;;;5076894;28;20240;-58
2022/09/03 01:19:54;;;;;;;3.67;1.13;;;18.30;95.70;;;;;;5077353;28;20250;-59
2022/09/03 01:22:53;;;;;;;1.83;1.00;;;18.30;95.50;;;;;;5076818;28;20242;-58
2022/09/03 01:25:39;;;;;;;2.00;1.05;;;18.40;95.40;;;;;;5076937;28;20230;-58
2022/09/03 01:28:19;;;;;;;1.65;0.95;;;18.40;95.40;;;;;;5077789;28;20192;-58
2022/09/03 01:30:54;;;;;;;4.88;0.95;;;18.40;95.40;;;;;;5077203;28;20235;-58
2022/09/03 01:33:27;;;;;;;1.70;1.15;;;18.50;95.20;;;;;;5076539;28;20215;-58
2022/09/03 01:36:06;;;;;;;3.03;0.90;;;18.60;95.10;;;;;;5076595;28;20307;-58
2022/09/03 01:38:40;;;;;;;2.92;1.00;;;18.60;95.00;;;;;;5076470;28;20200;-58
2022/09/03 01:44:10;;;;;;;5.25;1.20;;;18.50;95.10;;;;;;5076807;28;20283;-57
2022/09/03 01:46:40;;;;;;;2.22;1.20;;;18.60;95.00;;;;;;5076499;28;20256;-58
2022/09/03 01:49:19;;;;;;;2.28;0.90;;;18.50;95.00;;;;;;5076228;28;20229;-58
2022/09/03 01:51:46;;;;;;;2.45;1.10;;;18.60;95.00;;;;;;5076119;28;20227;-59
2022/09/03 01:54:33;;;;;;;3.33;1.25;;;18.70;94.90;;;;;;5076382;28;20205;-58
2022/09/03 01:57:23;;;;;;;2.30;1.05;;;18.80;94.80;;;;;;5076393;28;20311;-58
2022/09/03 01:59:57;;;;;;;4.15;1.00;;;18.90;94.70;;;;;;5076366;28;20654;-58
2022/09/03 02:02:26;;;;;;;1.35;1.08;;;18.90;94.60;;;;;;5076562;28;20637;-58
2022/09/03 02:04:59;;;;;;;2.20;0.90;;;19.00;94.50;;;;;;5076345;28;20212;-58
2022/09/03 02:07:32;;;;;;;3.50;1.00;;;19.00;94.50;;;;;;5076698;28;20271;-58
2022/09/03 02:09:59;;;;;;;1.10;0.93;;;19.00;94.40;;;;;;5076642;28;20225;-58
2022/09/03 02:12:26;;;;;;;2.15;1.10;;;19.10;94.20;;;;;;5076673;28;20205;-58
2022/09/03 02:14:55;;;;;;;1.20;1.10;;;19.30;94.10;;;;;;5076322;28;20229;-58
2022/09/03 02:17:22;;;;;;;1.55;0.95;;;19.40;94.00;;;;;;5076448;28;20259;-58
2022/09/03 02:19:48;;;;;;;1.77;0.90;;;19.40;93.80;;;;;;5076440;28;20205;-58
2022/09/03 02:22:15;;;;;;;2.35;0.80;;;19.50;93.60;;;;;;5076237;28;20209;-58
2022/09/03 02:24:42;;;;;;;1.15;1.02;;;19.60;93.60;;;;;;5077196;28;20248;-58
2022/09/03 02:27:09;;;;;;;0.90;0.77;;;19.60;93.60;;;;;;5078531;28;20229;-58
2022/09/03 02:29:36;;;;;;;1.27;1.00;;;19.50;93.60;;;;;;5078512;28;20775;-58
2022/09/03 02:32:05;;;;;;;2.20;1.10;;;19.40;93.80;;;;;;5077270;28;20205;-57
2022/09/03 02:34:31;;;;;;;2.47;1.00;;;19.40;93.90;;;;;;5078476;28;20197;-58
2022/09/03 02:36:58;;;;;;;1.40;1.10;;;19.30;93.80;;;;;;5078619;28;20643;-58
2022/09/03 02:39:27;;;;;;;4.22;1.13;;;19.40;93.90;;;;;;5077015;28;20239;-58
2022/09/03 02:41:57;;;;;;;1.67;0.90;;;19.40;93.90;;;;;;5076468;28;20209;-58
2022/09/03 02:44:30;;;;;;;1.27;1.10;;;19.40;93.80;;;;;;5075975;28;20231;-58
2022/09/03 02:46:59;;;;;;;1.35;1.20;;;19.50;93.70;;;;;;5076061;28;20224;-58
2022/09/03 02:49:27;;;;;;;3.60;1.17;;;19.50;93.70;;;;;;5075881;28;20229;-58
2022/09/03 02:51:59;;;;;;;0.90;0.77;;;19.50;93.60;;;;;;5075740;28;20776;-58
2022/09/03 02:54:27;;;;;;;2.08;1.02;;;19.50;93.60;;;;;;5075818;28;20209;-58
2022/09/03 02:56:54;;;;;;;3.17;1.23;;;19.50;93.70;;;;;;5075353;28;20228;-58
2022/09/03 02:59:22;;;;;;;1.23;1.02;;;19.40;93.90;;;;;;5075859;28;20201;-58
2022/09/03 03:01:49;;;;;;;3.72;1.20;;;19.40;94.10;;;;;;5074946;28;20208;-58
2022/09/03 03:04:16;;;;;;;1.55;0.98;;;19.30;94.20;;;;;;5075191;28;20266;-58
2022/09/03 03:06:44;;;;;;;2.33;1.33;;;19.30;94.20;;;;;;5074974;28;20225;-58
2022/09/03 03:09:11;;;;;;;2.08;1.25;;;19.30;94.10;;;;;;5074624;28;20204;-58
2022/09/03 03:11:39;;;;;;;2.38;1.30;;;19.30;94.10;;;;;;5074293;28;20240;-58
2022/09/03 03:14:05;;;;;;;1.60;1.15;;;19.40;94.10;;;;;;5075005;28;20213;-58
2022/09/03 03:16:33;;;;;;;3.13;1.10;;;19.40;94.10;;;;;;5074182;28;20243;-58
2022/09/03 03:19:00;;;;;;;3.42;1.20;;;19.30;94.20;;;;;;5074242;28;20216;-58
2022/09/03 03:21:26;;;;;;;2.15;0.98;;;19.20;94.50;;;;;;5074438;28;20573;-58
2022/09/03 03:23:55;;;;;;;2.65;1.33;;;19.20;94.50;;;;;;5073872;28;20197;-58
2022/09/03 03:26:23;;;;;;;2.75;1.40;;;19.20;94.80;;;;;;5074183;28;20228;-58
2022/09/03 03:28:55;;;;;;;3.78;1.40;;;19.10;94.50;;;;;;5074854;28;20209;-58
2022/09/03 03:31:23;;;;;;;2.13;1.38;;;19.20;94.70;;;;;;5074709;28;20264;-58
2022/09/03 03:33:52;;;;;;;3.05;1.10;;;19.20;94.70;;;;;;5074263;28;20208;-58
2022/09/03 03:36:20;;;;;;;2.72;1.00;;;19.20;94.80;;;;;;5074068;28;20235;-58
2022/09/03 03:38:47;;;;;;;1.35;1.00;;;19.20;94.90;;;;;;5074236;28;20672;-58
2022/09/03 03:41:18;;;;;;;3.53;1.20;;;19.00;95.20;;;;;;5074691;28;20205;-58
2022/09/03 03:43:45;;;;;;;3.55;1.27;;;18.90;95.70;;;;;;5074093;28;20212;-58
2022/09/03 03:46:13;;;;;;;4.10;1.30;;;18.70;96.00;;;;;;5074228;28;20247;-58
2022/09/03 03:48:41;;;;;;;1.50;1.00;;;18.60;96.30;;;;;;5073803;28;20205;-58
2022/09/03 03:51:09;;;;;;;1.95;1.13;;;18.40;96.60;;;;;;5073640;28;20700;-58
2022/09/03 03:53:39;;;;;;;1.80;1.27;;;18.30;96.90;;;;;;5073922;28;20200;-57
2022/09/03 03:56:08;;;;;;;2.80;1.55;;;18.30;96.90;;;;;;5074068;28;20225;-58
2022/09/03 03:58:40;;;;;;;3.03;1.10;;;18.30;97.20;;;;;;5073999;28;20589;-58
2022/09/03 04:01:09;;;;;;;3.65;1.30;;;18.30;97.00;;;;;;5073713;28;20718;-58
2022/09/03 04:03:37;;;;;;;1.67;1.10;;;18.30;97.10;;;;;;5073321;28;20240;-58
2022/09/03 04:06:05;;;;;;;2.45;1.30;;;18.30;97.30;;;;;;5073830;28;20229;-58
2022/09/03 04:08:35;;;;;;;3.78;1.23;;;18.30;97.30;;;;;;5073932;28;20205;-58
2022/09/03 04:11:03;;;;;;;2.22;1.00;;;18.30;97.40;;;;;;5073646;28;20225;-58
2022/09/03 04:13:30;;;;;;;2.17;1.10;;;18.10;97.80;;;;;;5073670;28;20209;-58
2022/09/03 04:16:02;;;;;;;1.85;1.30;;;18.10;97.70;;;;;;5073791;28;20243;-58
2022/09/03 04:18:30;;;;;;;2.75;1.33;;;18.30;97.70;;;;;;5074607;28;20205;-58
2022/09/03 04:21:02;;;;;;;1.42;1.23;;;18.30;97.60;;;;;;5074096;28;20201;-58
2022/09/03 04:23:30;;;;;;;2.10;1.60;;;18.30;97.70;;;;;;5074296;28;20567;-58
2022/09/03 04:25:56;;;;;;;3.42;1.50;;;18.20;98.00;;;;;;5073869;28;20731;-58
2022/09/03 04:28:23;;;;;;;1.92;1.40;;;18.10;98.30;;;;;;5073330;28;20208;-58
2022/09/03 04:30:50;;;;;;;3.97;1.33;;;18.00;98.60;;;;;;5072575;28;20229;-58
2022/09/03 04:33:19;;;;;;;2.35;1.83;;;17.90;98.70;;;;;;5073972;28;20236;-58
2022/09/03 04:35:46;;;;;;;3.17;1.63;;;17.90;98.80;;;;;;5073889;28;20228;-58
2022/09/03 04:38:13;;;;;;;3.20;1.40;;;17.90;99.10;;;;;;5073924;28;20728;-58
2022/09/03 04:40:39;;;;;;;1.88;1.33;;;17.80;99.20;;;;;;5074292;28;20204;-58
2022/09/03 04:43:06;;;;;;;2.47;1.30;;;17.90;99.30;;;;;;5073405;28;20205;-58
2022/09/03 04:45:33;;;;;;;1.67;1.10;;;17.90;99.40;;;;;;5073602;28;20244;-58
2022/09/03 04:48:02;;;;;;;1.35;1.20;;;17.80;99.50;;;;;;5073968;28;20215;-58
2022/09/03 04:50:34;;;;;;;2.72;1.23;;;17.80;99.60;;;;;;5073790;28;20239;-58
2022/09/03 04:53:02;;;;;;;1.95;1.40;;;17.80;99.80;;;;;;5074089;28;20204;-58
2022/09/03 04:55:32;;;;;;;3.58;1.50;;;17.80;99.80;;;;;;5074237;28;20221;-58
2022/09/03 04:57:59;;;;;;;3.22;1.30;;;17.70;99.90;;;;;;5074321;28;20196;-58
2022/09/03 05:00:26;;;;;;;2.33;1.60;;;17.70;99.90;;;;;;5074590;28;20673;-58
2022/09/03 05:02:53;;;;;;;4.57;1.70;;;17.70;99.90;;;;;;5074691;28;20212;-58
2022/09/03 05:05:20;;;;;;;2.75;1.80;;;17.80;99.90;;;;;;5074541;28;20215;-59
2022/09/03 05:07:48;;;;;;;2.60;1.73;;;17.80;99.90;;;;;;5075564;28;20229;-58
2022/09/03 05:10:19;;;;;;;1.48;1.20;;;17.80;99.90;;;;;;5075138;28;20662;-58
2022/09/03 05:12:46;;;;;;;3.13;1.55;;;17.80;99.90;;;;;;5074757;28;20353;-59
2022/09/03 05:15:13;;;;;;;1.33;1.20;;;17.80;99.90;;;;;;5074908;28;20204;-58
2022/09/03 05:17:40;;;;;;;1.73;1.33;;;17.80;99.90;;;;;;5074409;28;20247;-58
2022/09/03 05:20:08;;;;;;;1.80;1.40;;;17.90;99.90;;;;;;5074635;28;20300;-58
2022/09/03 05:22:35;;;;;;;4.05;1.42;;;18.00;99.90;;;;;;5074364;28;20209;-58
2022/09/03 05:25:04;;;;;;;3.83;1.33;;;18.00;99.90;;;;;;5074131;28;20576;-59
2022/09/03 05:27:32;;;;;;;1.85;1.10;;;18.00;99.90;;;;;;5074312;28;20688;-58
2022/09/03 05:29:58;;;;;;;3.25;1.40;;;17.90;99.90;;;;;;5074039;28;20201;-58
2022/09/03 05:32:27;;;;;;;1.40;1.30;;;18.00;99.90;;;;;;5075588;28;20286;-58
2022/09/03 05:34:54;;;;;;;2.42;1.23;;;18.00;99.90;;;;;;5075221;28;20244;-58
2022/09/03 05:37:22;;;;;;;2.42;1.50;;;17.90;99.90;;;;;;5075540;28;20643;-58
2022/09/03 05:39:49;;;;;;;2.08;1.73;;;18.00;99.90;;;;;;5075740;28;20303;-58
2022/09/03 05:42:17;;;;;;;4.28;2.50;;;18.00;99.90;;;;;;5076746;28;20224;-58
2022/09/03 05:44:43;;;;;;;3.88;1.60;;;18.10;99.90;;;;;;5078952;28;20208;-58
2022/09/03 05:47:10;;;;;;;1.88;1.40;;;18.10;99.90;;;;;;5079887;28;20631;-58
2022/09/03 05:49:37;;;;;;;3.17;1.50;;;18.20;99.90;;;;;;5079900;28;20205;-58
2022/09/03 05:52:04;;;;;;;2.92;1.13;;;18.30;99.90;;;;;;5080828;28;20229;-58
2022/09/03 05:54:30;;;;;;;1.92;1.02;;;18.40;99.90;;;;;;5080285;28;20201;-58
2022/09/03 05:56:57;;;;;;;1.85;1.20;;;19.20;99.90;;;;;;5079877;28;20231;-58
2022/09/03 05:59:25;;;;;;;1.25;1.02;;;20.30;98.20;;;;;;5080418;28;20296;-58
2022/09/03 06:01:52;;;;;;;2.38;1.33;;;21.00;96.90;;;;;;5078410;28;20212;-58
2022/09/03 06:04:19;;;;;;;2.15;1.52;;;21.10;96.20;;;;;;5079397;28;20216;-58
2022/09/03 06:06:47;;;;;;;2.65;1.23;;;20.90;96.30;;;;;;5080080;28;20225;-58
2022/09/03 06:09:16;;;;;;;3.72;1.38;;;20.60;96.90;;;;;;5079513;28;20212;-58
2022/09/03 06:11:44;;;;;;;3.80;1.67;;;20.20;97.40;;;;;;5081531;28;20295;-58
2022/09/03 06:14:13;;;;;;;1.70;1.30;;;20.00;97.80;;;;;;5081204;28;20330;-58
2022/09/03 06:16:42;;;;;;;3.20;1.60;;;19.80;98.20;;;;;;5080973;28;20438;-58
2022/09/03 06:19:10;;;;;;;3.17;1.60;;;19.50;98.80;;;;;;5081071;28;20205;-58
2022/09/03 06:21:41;;;;;;;1.50;1.25;;;19.40;99.20;;;;;;5081237;28;20201;-58
2022/09/03 06:24:09;;;;;;;2.95;1.40;;;19.30;99.40;;;;;;5080898;28;20629;-59
2022/09/03 06:26:36;;;;;;;2.10;1.40;;;19.40;99.30;;;;;;5080404;28;20719;-58
2022/09/03 06:29:03;;;;;;;1.60;1.35;;;19.50;99.40;;;;;;5081479;28;20665;-58
2022/09/03 06:31:29;;;;;;;1.60;1.40;;;19.50;99.40;;;;;;5080763;28;20228;-58
2022/09/03 06:33:58;;;;;;;4.35;1.48;;;19.40;99.60;;;;;;5079882;28;20205;-58
2022/09/03 06:36:25;;;;;;;2.20;1.30;;;19.30;99.80;;;;;;5080337;28;20231;-58
2022/09/03 06:38:54;;;;;;;1.63;1.35;;;19.30;99.90;;;;;;5078743;28;20209;-58
2022/09/03 06:41:23;;;;;;;1.98;1.55;;;19.20;99.90;;;;;;5079136;28;20251;-58
2022/09/03 06:43:52;;;;;;;3.20;1.35;;;19.10;99.90;;;;;;5079842;28;20216;-58
2022/09/03 06:46:21;;;;;;;2.80;1.73;;;19.10;99.90;;;;;;5078341;28;20236;-58
2022/09/03 06:48:49;;;;;;;2.80;1.65;;;19.10;99.90;;;;;;5078324;28;20295;-58
2022/09/03 06:51:20;;;;;;;3.80;1.42;;;19.20;99.90;;;;;;5077327;28;20225;-58
2022/09/03 06:53:49;;;;;;;2.20;1.42;;;19.30;99.90;;;;;;5075826;28;20197;-58
2022/09/03 06:56:21;;;;;;;3.00;1.73;;;19.50;99.90;;;;;;5077451;28;20232;-58
2022/09/03 06:58:48;;;;;;;3.17;1.67;;;19.50;99.90;;;;;;5076561;28;20666;-59
2022/09/03 07:01:17;;;;;;;3.47;2.00;;;19.70;99.90;;;;;;5076318;28;20216;-58
2022/09/03 07:03:46;;;;;;;3.67;1.73;;;19.70;99.90;;;;;;5075556;28;20576;-58
2022/09/03 07:06:15;;;;;;;4.32;1.60;;;19.80;99.90;;;;;;5075713;28;20229;-58
2022/09/03 07:08:45;;;;;;;3.72;1.65;;;19.80;99.90;;;;;;5075887;28;20563;-58
2022/09/03 07:11:13;;;;;;;2.83;1.60;;;19.80;99.90;;;;;;5075819;28;20307;-59
2022/09/03 07:13:42;;;;;;;3.90;2.10;;;19.90;99.90;;;;;;5075499;28;20205;-58
2022/09/03 07:16:11;;;;;;;2.13;1.55;;;20.10;99.90;;;;;;5075664;28;20243;-59
2022/09/03 07:18:38;;;;;;;1.77;1.40;;;20.30;99.70;;;;;;5075588;28;20590;-58
2022/09/03 07:21:07;;;;;;;2.65;1.63;;;20.40;99.70;;;;;;5075531;28;20197;-58
2022/09/03 07:23:35;;;;;;;2.90;1.80;;;20.40;99.50;;;;;;5075024;28;20217;-58
2022/09/03 07:26:07;;;;;;;1.50;1.30;;;20.60;99.50;;;;;;5075806;28;20665;-58
2022/09/03 07:28:35;;;;;;;2.45;1.77;;;20.60;99.30;;;;;;5075530;28;20205;-59
2022/09/03 07:31:04;;;;;;;4.30;1.38;;;20.60;99.40;;;;;;5074994;28;20221;-58
2022/09/03 07:33:32;;;;;;;3.15;1.77;;;20.70;99.50;;;;;;5074964;28;20286;-59
2022/09/03 07:36:05;;;;;;;2.45;2.10;;;20.80;99.30;;;;;;5075015;28;20229;-58
2022/09/03 07:38:32;;;;;;;3.67;1.85;;;21.00;99.00;;;;;;5075426;28;20212;-59
2022/09/03 07:40:59;;;;;;;3.47;1.98;;;21.20;98.80;;;;;;5074811;28;20205;-59
2022/09/03 07:43:29;;;;;;;4.07;1.80;;;21.50;98.50;;;;;;5075093;28;20298;-59
2022/09/03 07:45:56;;;;;;;2.70;1.70;;;21.90;98.00;;;;;;5074749;28;20651;-57
2022/09/03 07:48:24;;;;;;;2.78;1.83;;;22.30;97.50;;;;;;5074034;28;20240;-57
2022/09/03 07:50:51;;;;;;;1.65;1.50;;;23.20;96.20;;;;;;5073173;28;20256;-57
2022/09/03 07:53:19;;;;;;;2.10;1.58;;;23.90;94.80;;;;;;5072889;28;20216;-57
2022/09/03 07:55:46;;;;;;;6.13;1.65;;;24.50;94.00;;;;;;5073186;28;20252;-58
2022/09/03 07:58:13;;;;;;;3.65;1.50;;;25.00;93.00;;;;;;5072972;28;20204;-57
2022/09/03 08:00:41;;;;;;;4.22;1.60;;;25.20;92.50;;;;;;5073189;28;20212;-57
2022/09/03 08:03:07;;;;;;;3.90;1.70;;;25.40;92.10;;;;;;5072581;28;20216;-57
2022/09/03 08:05:35;;;;;;;2.92;1.63;;;25.30;92.20;;;;;;5072810;28;20669;-58
2022/09/03 08:08:03;;;;;;;2.30;1.50;;;25.00;92.30;;;;;;5073135;28;20205;-57
2022/09/03 08:10:31;;;;;;;3.90;1.65;;;24.60;92.90;;;;;;5073132;28;20211;-57
2022/09/03 08:12:58;;;;;;;4.05;1.40;;;24.40;93.40;;;;;;5072614;28;20231;-57
2022/09/03 08:15:25;;;;;;;2.00;1.70;;;24.20;93.60;;;;;;5073077;28;20207;-57
2022/09/03 08:17:54;;;;;;;3.63;1.70;;;24.20;93.90;;;;;;5072752;28;20640;-57
2022/09/03 08:20:21;;;;;;;2.30;1.63;;;24.20;93.70;;;;;;5073386;28;20204;-57
2022/09/03 08:22:48;;;;;;;2.42;1.67;;;24.30;93.90;;;;;;5073351;28;20211;-58
2022/09/03 08:25:15;;;;;;;3.75;1.50;;;24.30;94.30;;;;;;5073072;28;20231;-57
2022/09/03 08:27:42;;;;;;;1.60;1.30;;;24.50;93.90;;;;;;5073426;28;21122;-57
2022/09/03 08:30:10;;;;;;;2.25;1.60;;;24.60;93.80;;;;;;5072976;28;20205;-57
2022/09/03 08:32:37;;;;;;;2.55;1.88;;;24.80;93.50;;;;;;5073290;28;20236;-57
2022/09/03 08:35:07;;;;;;;2.85;1.70;;;25.20;93.10;;;;;;5073487;28;20645;-57
2022/09/03 08:37:34;;;;;;;6.13;1.67;;;25.50;92.50;;;;;;5073091;28;20224;-58
2022/09/03 08:40:02;;;;;;;3.22;1.55;;;25.60;92.20;;;;;;5073814;28;20205;-58
2022/09/03 08:42:39;;;;;;;1.85;1.55;;;25.70;92.00;;;;;;5072886;28;20250;-56
2022/09/03 08:45:10;;;;;;;5.90;1.50;;;25.60;92.20;;;;;;5072410;28;20752;-56
2022/09/03 08:47:41;;;;;;;1.60;1.50;;;25.80;92.20;;;;;;5072282;28;20603;-56
2022/09/03 08:50:18;;;;;;;4.85;2.10;;;26.00;92.10;;;;;;5072617;28;20204;-57
2022/09/03 08:52:48;;;;;;;4.32;1.63;;;26.20;91.70;;;;;;5071942;28;20228;-58
2022/09/03 08:55:21;;;;;;;4.95;2.00;;;26.30;91.50;;;;;;5072540;28;20559;-57
2022/09/03 08:57:50;;;;;;;5.97;1.77;;;26.20;92.10;;;;;;5072377;28;20231;-58
2022/09/03 09:00:18;;;;;;;2.35;1.83;;;26.10;92.00;;;;;;5072914;28;20587;-66
2022/09/03 09:03:00;;;;;;;1.92;1.63;;;26.20;91.70;;;;;;5073302;28;20295;-56
2022/09/03 09:05:38;;;;;;;2.47;1.90;;;26.00;92.10;;;;;;5072890;28;20201;-57
2022/09/03 09:08:18;;;;;;;3.22;2.47;;;26.20;92.40;;;;;;5072424;28;20204;-58
2022/09/03 09:10:47;;;;;;;4.38;2.38;;;26.70;91.70;;;;;;5072299;28;20212;-58
2022/09/03 09:13:24;;;;;;;2.78;1.83;;;27.30;90.80;;;;;;5071776;28;20225;-58
2022/09/03 09:16:01;;;;;;;2.03;1.83;;;27.80;89.70;;;;;;5072223;28;20247;-57
2022/09/03 09:18:38;;;;;;;4.10;1.83;;;27.90;89.50;;;;;;5076245;28;20212;-58
2022/09/03 09:21:15;;;;;;;2.55;2.10;;;27.90;89.50;;;;;;5077104;28;20208;-57
2022/09/03 09:23:46;;;;;;;2.55;2.10;;;28.40;88.00;;;;;;5076291;28;20201;-58
2022/09/03 09:26:15;;;;;;;3.90;1.80;;;28.90;86.00;;;;;;5076465;28;20221;-58
2022/09/03 09:28:45;;;;;;;4.22;2.30;;;29.20;84.00;;;;;;5076616;28;20240;-57
2022/09/03 09:31:17;;;;;;;4.78;1.92;;;29.10;83.50;;;;;;5076511;28;20201;-57
2022/09/03 09:33:44;;;;;;;5.65;4.00;;;29.10;83.00;;;;;;5076813;28;20208;-57
2022/09/03 09:36:17;;;;;;;4.68;2.33;;;29.40;82.30;;;;;;5076517;28;20697;-60
2022/09/03 09:38:45;;;;;;;4.32;2.00;;;29.70;81.30;;;;;;5076549;28;20696;-57
2022/09/03 09:41:14;;;;;;;4.32;1.77;;;30.00;79.80;;;;;;5076183;28;20205;-57
2022/09/03 09:43:41;;;;;;;6.75;2.20;;;29.70;79.80;;;;;;5076249;28;20203;-58
2022/09/03 09:46:13;;;;;;;5.40;1.90;;;29.20;80.60;;;;;;5076125;28;20237;-58
2022/09/03 09:48:48;;;;;;;3.17;2.17;;;28.70;81.60;;;;;;5076832;28;20205;-59
2022/09/03 09:51:21;;;;;;;3.17;1.90;;;28.50;82.60;;;;;;5076235;28;20261;-59
2022/09/03 09:54:00;;;;;;;6.13;2.22;;;28.40;82.90;;;;;;5075940;28;20293;-58
2022/09/03 09:56:26;;;;;;;3.95;1.90;;;28.40;83.80;;;;;;5075601;28;20228;-59
2022/09/03 09:59:02;;;;;;;1.70;1.60;;;28.20;84.20;;;;;;5076285;28;20220;-59
2022/09/03 10:01:30;;;;;;;3.00;2.10;;;27.80;85.60;;;;;;5076346;28;20197;-59
2022/09/03 10:03:59;;;;;;;6.78;2.15;;;27.50;86.60;;;;;;5076289;28;20209;-59
2022/09/03 10:09:16;;;;;;;4.28;1.88;;;27.40;87.60;;;;;;5076152;28;20212;-58
2022/09/03 10:11:45;;;;;;;4.78;2.50;;;27.20;87.70;;;;;;5075304;28;20648;-58
2022/09/03 10:14:20;;;;;;;3.65;2.00;;;27.00;88.70;;;;;;5075084;28;20211;-58
2022/09/03 10:16:52;;;;;;;4.25;2.03;;;27.00;88.40;;;;;;5079751;28;20239;-57
2022/09/03 10:19:22;;;;;;;3.72;2.38;;;26.90;88.50;;;;;;5076328;28;20740;-56
2022/09/03 10:21:58;;;;;;;3.33;2.22;;;26.80;89.00;;;;;;5076062;28;20251;-57
2022/09/03 10:24:38;;;;;;;4.25;2.53;;;26.90;88.00;;;;;;5075723;28;20212;-57
2022/09/03 10:27:09;;;;;;;2.33;2.05;;;26.90;88.50;;;;;;5075799;28;20769;-58
2022/09/03 10:29:38;;;;;;;1.90;1.70;;;27.20;87.20;;;;;;5073539;28;20205;-57
2022/09/03 10:32:27;;;;;;;2.60;1.90;;;27.20;86.60;;;;;;5074365;28;20244;-57
2022/09/03 10:35:03;;;;;;;5.88;2.30;;;27.40;86.60;;;;;;5075603;28;20278;-57
2022/09/03 10:37:39;;;;;;;2.63;2.00;;;27.80;85.30;;;;;;5075525;28;20224;-56
2022/09/03 10:40:16;;;;;;;2.83;2.63;;;28.10;83.30;;;;;;5075885;28;20205;-56
2022/09/03 10:42:48;;;;;;;4.18;2.30;;;28.40;83.00;;;;;;5075608;28;20295;-55
2022/09/03 10:45:21;;;;;;;3.53;2.00;;;28.60;82.70;;;;;;5075444;28;20691;-61
2022/09/03 10:48:29;;;;;;;3.97;2.53;;;28.70;81.40;;;;;;5076083;28;20228;-56
2022/09/03 10:50:58;;;;;;;2.88;1.95;;;28.80;80.70;;;;;;5049505;28;20209;-55
2022/09/03 10:53:52;;;;;;;3.20;1.90;;;29.10;79.60;;;;;;5075109;28;20280;-57
2022/09/03 10:56:24;;;;;;;1.80;1.70;;;29.20;79.00;;;;;;5074351;28;20817;-55
2022/09/03 10:59:04;;;;;;;3.17;2.15;;;29.10;78.60;;;;;;5075644;28;20266;-56
2022/09/03 11:01:37;;;;;;;4.25;2.30;;;29.10;79.10;;;;;;5076448;28;20680;-56
2022/09/03 11:04:20;;;;;;;4.22;2.05;;;29.30;79.00;;;;;;5074720;28;20303;-56
2022/09/03 11:06:52;;;;;;;2.78;2.20;;;29.30;78.70;;;;;;5074853;28;20228;-56
2022/09/03 11:09:23;;;;;;;2.60;1.98;;;29.30;79.00;;;;;;5074932;28;20684;-56
2022/09/03 11:11:54;;;;;;;4.20;2.22;;;29.30;78.50;;;;;;5074909;28;20229;-55
2022/09/03 11:14:31;;;;;;;2.70;2.45;;;28.90;79.20;;;;;;5074666;28;20211;-56
2022/09/03 11:17:03;;;;;;;5.55;3.15;;;28.50;80.80;;;;;;5074650;28;20374;-58
2022/09/03 11:19:36;;;;;;;2.22;1.83;;;28.50;81.10;;;;;;5075187;28;20208;-57
2022/09/03 11:22:06;;;;;;;2.78;2.10;;;28.50;80.40;;;;;;5074588;28;20570;-57
2022/09/03 11:24:39;;;;;;;2.35;1.92;;;28.50;80.50;;;;;;5075039;28;20555;-57
2022/09/03 11:27:20;;;;;;;2.55;1.90;;;28.40;81.50;;;;;;5074968;28;20712;-57
2022/09/03 11:29:53;;;;;;;5.78;1.92;;;28.10;82.00;;;;;;5074491;28;20205;-57
2022/09/03 11:32:24;;;;;;;2.80;1.85;;;27.90;82.50;;;;;;5074663;28;20235;-57
2022/09/03 11:34:53;;;;;;;2.63;1.98;;;27.70;83.00;;;;;;5075522;28;20215;-57
2022/09/03 11:37:23;;;;;;;4.10;1.98;;;27.70;83.70;;;;;;5074459;28;20256;-57
2022/09/03 11:39:58;;;;;;;3.42;1.75;;;28.00;83.10;;;;;;5073756;28;20657;-57
2022/09/03 11:42:30;;;;;;;3.38;1.83;;;28.20;81.90;;;;;;5074111;28;20299;-57
2022/09/03 11:45:13;;;;;;;4.32;2.00;;;28.00;82.60;;;;;;5074372;28;20219;-57
2022/09/03 11:47:42;;;;;;;3.90;1.75;;;27.70;83.40;;;;;;5074482;28;20696;-57
2022/09/03 11:50:19;;;;;;;4.40;1.98;;;27.50;84.10;;;;;;5073369;28;20205;-58
2022/09/03 11:52:46;;;;;;;3.90;1.90;;;27.60;84.20;;;;;;5072843;28;20700;-57
2022/09/03 11:55:25;;;;;;;3.15;1.98;;;27.90;83.60;;;;;;5073536;28;20291;-57
2022/09/03 11:57:52;;;;;;;12.48;5.50;;;28.30;82.90;;;;;;5073452;28;20204;-57
2022/09/03 12:00:23;;;;;;;2.40;1.77;;;28.60;81.60;;;;;;5073265;28;20692;-58
2022/09/03 12:02:54;;;;;;;2.63;2.00;;;29.00;80.10;;;;;;5073108;28;20212;-57
2022/09/03 12:05:27;;;;;;;6.85;2.88;;;29.10;79.70;;;;;;5073024;28;20560;-58
2022/09/03 12:08:22;;;;;;;3.50;1.92;;;29.20;79.80;;;;;;5073076;28;20244;-56
2022/09/03 12:10:55;;;;;;;2.78;1.90;;;29.20;79.70;;;;;;5073483;28;20213;-57
2022/09/03 12:13:35;;;;;;;13.55;5.78;;;29.20;79.70;;;;;;5072740;28;20727;-57
2022/09/03 12:16:22;;;;;;;16.00;5.63;;;29.00;80.20;;;;;;5072687;28;20233;-58
2022/09/03 12:18:51;;;;;;;3.80;2.50;;;28.80;80.40;;;;;;5073247;28;20211;-57
2022/09/03 12:21:19;;;;;;;4.47;2.60;;;28.70;80.90;;;;;;5073101;28;20205;-57
2022/09/03 12:23:48;;;;;;;13.48;5.38;;;28.50;81.60;;;;;;5072727;28;20282;-57
2022/09/03 12:26:18;;;;;;;11.77;7.43;;;28.30;82.30;;;;;;5072834;28;20228;-56
2022/09/03 12:28:47;;;;;;;5.18;2.50;;;28.00;82.80;;;;;;5073247;28;20211;-63
2022/09/03 12:31:21;;;;;;;7.50;3.75;;;27.70;83.90;;;;;;5074082;28;20209;-59
2022/09/03 12:33:50;;;;;;;6.30;3.65;;;27.50;85.10;;;;;;5072736;28;20260;-58
2022/09/03 12:36:17;;;;;;;8.07;3.60;;;27.20;85.80;;;;;;5072716;28;20279;-57
2022/09/03 12:38:46;;;;;;;4.20;3.60;;;27.00;86.60;;;;;;5073121;28;20213;-58
2022/09/03 12:41:26;;;;;;;7.15;2.90;;;26.80;87.40;;;;;;5074239;28;20200;-60
2022/09/03 12:43:56;;;;;;;3.38;2.40;;;26.50;88.20;;;;;;5073082;28;20222;-60
2022/09/03 12:46:24;;;;;;;6.05;2.30;;;26.40;89.20;;;;;;5074432;28;20228;-68
2022/09/03 12:48:55;;;;;;;5.15;2.00;;;26.20;89.70;;;;;;5074487;28;20254;-62
2022/09/03 12:51:22;;;;;;;5.32;2.40;;;26.10;90.10;;;;;;5072428;28;20208;-56
2022/09/03 12:53:52;;;;;;;3.13;2.00;;;26.10;90.60;;;;;;5072153;28;20229;-56
2022/09/03 12:56:20;;;;;;;2.40;2.20;;;26.00;90.80;;;;;;5073079;28;20610;-59
2022/09/03 12:58:52;;;;;;;7.93;2.00;;;25.90;91.40;;;;;;5072896;28;20209;-56
2022/09/03 13:01:24;;;;;;;5.78;1.95;;;25.70;92.20;;;;;;5072408;28;20680;-54
2022/09/03 13:03:56;;;;;;;2.83;1.40;;;25.40;93.10;;;;;;5072859;28;20299;-54
2022/09/03 13:06:27;;;;;;;2.00;1.40;;;25.20;93.20;;;;;;5073236;28;20228;-55
2022/09/03 13:08:57;;;;;;;2.20;1.00;;;25.00;93.70;;;;;;5073517;28;20295;-55
2022/09/03 13:11:25;;;;;;;2.35;0.90;;;24.80;94.30;;;;;;5072655;28;20240;-54